Aviation Digital Data Service (ADDS)

Output produced by METARs form (0517 UTC 21 January 2019)
found at http://www.aviationweather.gov/metar/data/
 
METAR text: ZBHH 210500Z VRB02MPS CAVOK M07/M19 Q1025 NOSIG
Conditions at: ZBHH (HUHHOT , CN) observed 0500 UTC 21 January 2019
Temperature: -7.0°C (19°F)
Dewpoint: -19.0°C (-2°F) [RH = 38%]
Pressure (altimeter): 30.27 inches Hg (1025.0 mb)
Winds: variable direction winds at 5 MPH (4 knots; 2.1 m/s)
Visibility: 6 or more miles (10+ km)
Ceiling: ceiling and visibility are OK
Clouds: unknown
Weather: no significant weather observed at this time

METAR text: ZBHH 210400Z VRB02MPS CAVOK M08/M20 Q1027 NOSIG
Conditions at: ZBHH (HUHHOT , CN) observed 0400 UTC 21 January 2019
Temperature: -8.0°C (18°F)
Dewpoint: -20.0°C (-4°F) [RH = 37%]
Pressure (altimeter): 30.32 inches Hg (1027.0 mb)
Winds: variable direction winds at 5 MPH (4 knots; 2.1 m/s)
Visibility: 6 or more miles (10+ km)
Ceiling: ceiling and visibility are OK
Clouds: unknown
Weather: no significant weather observed at this time

METAR text: ZBHH 210300Z 16002MPS 110V250 CAVOK M10/M20 Q1027 NOSIG
Conditions at: ZBHH (HUHHOT , CN) observed 0300 UTC 21 January 2019
Temperature: -10.0°C (14°F)
Dewpoint: -20.0°C (-4°F) [RH = 44%]
Pressure (altimeter): 30.32 inches Hg (1027.0 mb)
Winds: from the SSE (160 degrees) at 5 MPH (4 knots; 2.1 m/s)
Visibility: 6 or more miles (10+ km)
Ceiling: ceiling and visibility are OK
Clouds: unknown
Weather: no significant weather observed at this time

METAR text: ZBHH 210200Z 11002MPS 080V140 6000 NSC M12/M19 Q1028 NOSIG
Conditions at: ZBHH (HUHHOT , CN) observed 0200 UTC 21 January 2019
Temperature: -12.0°C (10°F)
Dewpoint: -19.0°C (-2°F) [RH = 56%]
Pressure (altimeter): 30.35 inches Hg (1028.0 mb)
Winds: from the ESE (110 degrees) at 5 MPH (4 knots; 2.1 m/s)
Visibility: 4 miles ( 6 km)
Ceiling: at least 12,000 feet AGL
Clouds: sky clear below 12,000 feet AGL
Weather: no significant weather observed at this time

METAR text: ZBHH 210100Z VRB01MPS 6000 NSC M17/M22 Q1027 NOSIG
Conditions at: ZBHH (HUHHOT , CN) observed 0100 UTC 21 January 2019
Temperature: -17.0°C ( 1°F)
Dewpoint: -22.0°C (-8°F) [RH = 65%]
Pressure (altimeter): 30.32 inches Hg (1027.0 mb)
Winds: variable direction winds at 2 MPH (2 knots; 1.0 m/s)
Visibility: 4 miles ( 6 km)
Ceiling: at least 12,000 feet AGL
Clouds: sky clear below 12,000 feet AGL
Weather: no significant weather observed at this time

METAR text: ZBHH 210000Z VRB01MPS 8000 NSC M21/M24 Q1028 NOSIG
Conditions at: ZBHH (HUHHOT , CN) observed 0000 UTC 21 January 2019
Temperature: -21.0°C (-6°F)
Dewpoint: -24.0°C (-11°F) [RH = 77%]
Pressure (altimeter): 30.35 inches Hg (1028.0 mb)
Winds: variable direction winds at 2 MPH (2 knots; 1.0 m/s)
Visibility: 5 miles ( 8 km)
Ceiling: at least 12,000 feet AGL
Clouds: sky clear below 12,000 feet AGL
Weather: no significant weather observed at this time

METAR text: ZBHH 202300Z 08002MPS 040V100 CAVOK M21/M24 Q1027 NOSIG
Conditions at: ZBHH (HUHHOT , CN) observed 2300 UTC 20 January 2019
Temperature: -21.0°C (-6°F)
Dewpoint: -24.0°C (-11°F) [RH = 77%]
Pressure (altimeter): 30.32 inches Hg (1027.0 mb)
Winds: from the E (80 degrees) at 5 MPH (4 knots; 2.1 m/s)
Visibility: 6 or more miles (10+ km)
Ceiling: ceiling and visibility are OK
Clouds: unknown
Weather: no significant weather observed at this time

METAR text: ZBHH 202200Z 04002MPS CAVOK M21/M25 Q1027 NOSIG
Conditions at: ZBHH (HUHHOT , CN) observed 2200 UTC 20 January 2019
Temperature: -21.0°C (-6°F)
Dewpoint: -25.0°C (-13°F) [RH = 70%]
Pressure (altimeter): 30.32 inches Hg (1027.0 mb)
Winds: from the NE (40 degrees) at 5 MPH (4 knots; 2.1 m/s)
Visibility: 6 or more miles (10+ km)
Ceiling: ceiling and visibility are OK
Clouds: unknown
Weather: no significant weather observed at this time

METAR text: ZBHH 202100Z 07002MPS CAVOK M20/M24 Q1028 NOSIG
Conditions at: ZBHH (HUHHOT , CN) observed 2100 UTC 20 January 2019
Temperature: -20.0°C (-4°F)
Dewpoint: -24.0°C (-11°F) [RH = 70%]
Pressure (altimeter): 30.35 inches Hg (1028.0 mb)
Winds: from the ENE (70 degrees) at 5 MPH (4 knots; 2.1 m/s)
Visibility: 6 or more miles (10+ km)
Ceiling: ceiling and visibility are OK
Clouds: unknown
Weather: no significant weather observed at this time

METAR text: ZBHH 202000Z 07003MPS CAVOK M21/M24 Q1028 NOSIG
Conditions at: ZBHH (HUHHOT , CN) observed 2000 UTC 20 January 2019
Temperature: -21.0°C (-6°F)
Dewpoint: -24.0°C (-11°F) [RH = 77%]
Pressure (altimeter): 30.35 inches Hg (1028.0 mb)
Winds: from the ENE (70 degrees) at 7 MPH (6 knots; 3.1 m/s)
Visibility: 6 or more miles (10+ km)
Ceiling: ceiling and visibility are OK
Clouds: unknown
Weather: no significant weather observed at this time

METAR text: ZBHH 201900Z 07003MPS CAVOK M20/M25 Q1029 NOSIG
Conditions at: ZBHH (HUHHOT , CN) observed 1900 UTC 20 January 2019
Temperature: -20.0°C (-4°F)
Dewpoint: -25.0°C (-13°F) [RH = 64%]
Pressure (altimeter): 30.38 inches Hg (1029.0 mb)
Winds: from the ENE (70 degrees) at 7 MPH (6 knots; 3.1 m/s)
Visibility: 6 or more miles (10+ km)
Ceiling: ceiling and visibility are OK
Clouds: unknown
Weather: no significant weather observed at this time

METAR text: ZBHH 201800Z 07002MPS CAVOK M19/M24 Q1029 NOSIG
Conditions at: ZBHH (HUHHOT , CN) observed 1800 UTC 20 January 2019
Temperature: -19.0°C (-2°F)
Dewpoint: -24.0°C (-11°F) [RH = 65%]
Pressure (altimeter): 30.38 inches Hg (1029.0 mb)
Winds: from the ENE (70 degrees) at 5 MPH (4 knots; 2.1 m/s)
Visibility: 6 or more miles (10+ km)
Ceiling: ceiling and visibility are OK
Clouds: unknown
Weather: no significant weather observed at this time

METAR text: ZBHH 201700Z 07003MPS CAVOK M19/M24 Q1030 NOSIG
Conditions at: ZBHH (HUHHOT , CN) observed 1700 UTC 20 January 2019
Temperature: -19.0°C (-2°F)
Dewpoint: -24.0°C (-11°F) [RH = 65%]
Pressure (altimeter): 30.41 inches Hg (1030.0 mb)
Winds: from the ENE (70 degrees) at 7 MPH (6 knots; 3.1 m/s)
Visibility: 6 or more miles (10+ km)
Ceiling: ceiling and visibility are OK
Clouds: unknown
Weather: no significant weather observed at this time

METAR text: ZBHH 201600Z 08003MPS CAVOK M18/M23 Q1031 NOSIG
Conditions at: ZBHH (HUHHOT , CN) observed 1600 UTC 20 January 2019
Temperature: -18.0°C (-0°F)
Dewpoint: -23.0°C (-9°F) [RH = 65%]
Pressure (altimeter): 30.44 inches Hg (1031.0 mb)
Winds: from the E (80 degrees) at 7 MPH (6 knots; 3.1 m/s)
Visibility: 6 or more miles (10+ km)
Ceiling: ceiling and visibility are OK
Clouds: unknown
Weather: no significant weather observed at this time

METAR text: ZBHH 201500Z 09003MPS 8000 NSC M16/M21 Q1031 NOSIG
Conditions at: ZBHH (HUHHOT , CN) observed 1500 UTC 20 January 2019
Temperature: -16.0°C ( 3°F)
Dewpoint: -21.0°C (-6°F) [RH = 65%]
Pressure (altimeter): 30.44 inches Hg (1031.0 mb)
Winds: from the E (90 degrees) at 7 MPH (6 knots; 3.1 m/s)
Visibility: 5 miles ( 8 km)
Ceiling: at least 12,000 feet AGL
Clouds: sky clear below 12,000 feet AGL
Weather: no significant weather observed at this time

METAR text: ZBHH 201400Z 08002MPS 8000 NSC M15/M21 Q1031 NOSIG
Conditions at: ZBHH (HUHHOT , CN) observed 1400 UTC 20 January 2019
Temperature: -15.0°C ( 5°F)
Dewpoint: -21.0°C (-6°F) [RH = 60%]
Pressure (altimeter): 30.44 inches Hg (1031.0 mb)
Winds: from the E (80 degrees) at 5 MPH (4 knots; 2.1 m/s)
Visibility: 5 miles ( 8 km)
Ceiling: at least 12,000 feet AGL
Clouds: sky clear below 12,000 feet AGL
Weather: no significant weather observed at this time

METAR text: ZBHH 201300Z 06003MPS 8000 NSC M14/M21 Q1031 NOSIG
Conditions at: ZBHH (HUHHOT , CN) observed 1300 UTC 20 January 2019
Temperature: -14.0°C ( 7°F)
Dewpoint: -21.0°C (-6°F) [RH = 55%]
Pressure (altimeter): 30.44 inches Hg (1031.0 mb)
Winds: from the ENE (60 degrees) at 7 MPH (6 knots; 3.1 m/s)
Visibility: 5 miles ( 8 km)
Ceiling: at least 12,000 feet AGL
Clouds: sky clear below 12,000 feet AGL
Weather: no significant weather observed at this time

METAR text: ZBHH 201200Z 09002MPS 7000 NSC M12/M20 Q1031 NOSIG
Conditions at: ZBHH (HUHHOT , CN) observed 1200 UTC 20 January 2019
Temperature: -12.0°C (10°F)
Dewpoint: -20.0°C (-4°F) [RH = 51%]
Pressure (altimeter): 30.44 inches Hg (1031.0 mb)
Winds: from the E (90 degrees) at 5 MPH (4 knots; 2.1 m/s)
Visibility: 4 miles ( 7 km)
Ceiling: at least 12,000 feet AGL
Clouds: sky clear below 12,000 feet AGL
Weather: no significant weather observed at this time

METAR text: ZBHH 201100Z 20002MPS CAVOK M10/M20 Q1031 NOSIG
Conditions at: ZBHH (HUHHOT , CN) observed 1100 UTC 20 January 2019
Temperature: -10.0°C (14°F)
Dewpoint: -20.0°C (-4°F) [RH = 44%]
Pressure (altimeter): 30.44 inches Hg (1031.0 mb)
Winds: from the SSW (200 degrees) at 5 MPH (4 knots; 2.1 m/s)
Visibility: 6 or more miles (10+ km)
Ceiling: ceiling and visibility are OK
Clouds: unknown
Weather: no significant weather observed at this time

METAR text: ZBHH 201000Z 23003MPS 7000 NSC M08/M19 Q1031 NOSIG
Conditions at: ZBHH (HUHHOT , CN) observed 1000 UTC 20 January 2019
Temperature: -8.0°C (18°F)
Dewpoint: -19.0°C (-2°F) [RH = 41%]
Pressure (altimeter): 30.44 inches Hg (1031.0 mb)
Winds: from the SW (230 degrees) at 7 MPH (6 knots; 3.1 m/s)
Visibility: 4 miles ( 7 km)
Ceiling: at least 12,000 feet AGL
Clouds: sky clear below 12,000 feet AGL
Weather: no significant weather observed at this time

METAR text: ZBHH 200900Z 22005MPS CAVOK M06/M19 Q1031 NOSIG
Conditions at: ZBHH (HUHHOT , CN) observed 0900 UTC 20 January 2019
Temperature: -6.0°C (21°F)
Dewpoint: -19.0°C (-2°F) [RH = 35%]
Pressure (altimeter): 30.44 inches Hg (1031.0 mb)
Winds: from the SW (220 degrees) at 12 MPH (10 knots; 5.1 m/s)
Visibility: 6 or more miles (10+ km)
Ceiling: ceiling and visibility are OK
Clouds: unknown
Weather: no significant weather observed at this time

METAR text: ZBHH 200800Z 23005MPS 200V260 CAVOK M04/M18 Q1031 NOSIG
Conditions at: ZBHH (HUHHOT , CN) observed 0800 UTC 20 January 2019
Temperature: -4.0°C (25°F)
Dewpoint: -18.0°C (-0°F) [RH = 33%]
Pressure (altimeter): 30.44 inches Hg (1031.0 mb)
Winds: from the SW (230 degrees) at 12 MPH (10 knots; 5.1 m/s)
Visibility: 6 or more miles (10+ km)
Ceiling: ceiling and visibility are OK
Clouds: unknown
Weather: no significant weather observed at this time

METAR text: ZBHH 200700Z 21005MPS CAVOK M04/M18 Q1031 NOSIG
Conditions at: ZBHH (HUHHOT , CN) observed 0700 UTC 20 January 2019
Temperature: -4.0°C (25°F)
Dewpoint: -18.0°C (-0°F) [RH = 33%]
Pressure (altimeter): 30.44 inches Hg (1031.0 mb)
Winds: from the SSW (210 degrees) at 12 MPH (10 knots; 5.1 m/s)
Visibility: 6 or more miles (10+ km)
Ceiling: ceiling and visibility are OK
Clouds: unknown
Weather: no significant weather observed at this time

METAR text: ZBHH 200600Z 22005MPS CAVOK M05/M18 Q1031 NOSIG
Conditions at: ZBHH (HUHHOT , CN) observed 0600 UTC 20 January 2019
Temperature: -5.0°C (23°F)
Dewpoint: -18.0°C (-0°F) [RH = 35%]
Pressure (altimeter): 30.44 inches Hg (1031.0 mb)
Winds: from the SW (220 degrees) at 12 MPH (10 knots; 5.1 m/s)
Visibility: 6 or more miles (10+ km)
Ceiling: ceiling and visibility are OK
Clouds: unknown
Weather: no significant weather observed at this time

METAR text: ZBHH 200500Z 22004MPS CAVOK M05/M18 Q1032 NOSIG
Conditions at: ZBHH (HUHHOT , CN) observed 0500 UTC 20 January 2019
Temperature: -5.0°C (23°F)
Dewpoint: -18.0°C (-0°F) [RH = 35%]
Pressure (altimeter): 30.47 inches Hg (1032.0 mb)
Winds: from the SW (220 degrees) at 9 MPH (8 knots; 4.1 m/s)
Visibility: 6 or more miles (10+ km)
Ceiling: ceiling and visibility are OK
Clouds: unknown
Weather: no significant weather observed at this time

METAR text: ZBHH 200400Z 23004MPS 190V250 CAVOK M06/M18 Q1033 NOSIG
Conditions at: ZBHH (HUHHOT , CN) observed 0400 UTC 20 January 2019
Temperature: -6.0°C (21°F)
Dewpoint: -18.0°C (-0°F) [RH = 38%]
Pressure (altimeter): 30.50 inches Hg (1033.0 mb)
Winds: from the SW (230 degrees) at 9 MPH (8 knots; 4.1 m/s)
Visibility: 6 or more miles (10+ km)
Ceiling: ceiling and visibility are OK
Clouds: unknown
Weather: no significant weather observed at this time

METAR text: ZBHH 200300Z 28005MPS 250V310 CAVOK M08/M19 Q1034 BECMG TL0430 22004MPS
Conditions at: ZBHH (HUHHOT , CN) observed 0300 UTC 20 January 2019
Temperature: -8.0°C (18°F)
Dewpoint: -19.0°C (-2°F) [RH = 41%]
Pressure (altimeter): 30.53 inches Hg (1034.0 mb)
Winds: from the W (280 degrees) at 12 MPH (10 knots; 5.1 m/s)
Visibility: 6 or more miles (10+ km)
Ceiling: ceiling and visibility are OK
Clouds: unknown
Weather: no significant weather observed at this time

METAR text: ZBHH 200200Z VRB01MPS CAVOK M12/M20 Q1034 NOSIG
Conditions at: ZBHH (HUHHOT , CN) observed 0200 UTC 20 January 2019
Temperature: -12.0°C (10°F)
Dewpoint: -20.0°C (-4°F) [RH = 51%]
Pressure (altimeter): 30.53 inches Hg (1034.0 mb)
Winds: variable direction winds at 2 MPH (2 knots; 1.0 m/s)
Visibility: 6 or more miles (10+ km)
Ceiling: ceiling and visibility are OK
Clouds: unknown
Weather: no significant weather observed at this time

METAR text: ZBHH 200100Z VRB01MPS CAVOK M16/M22 Q1034 BECMG TL0230 33005MPS
Conditions at: ZBHH (HUHHOT , CN) observed 0100 UTC 20 January 2019
Temperature: -16.0°C ( 3°F)
Dewpoint: -22.0°C (-8°F) [RH = 60%]
Pressure (altimeter): 30.53 inches Hg (1034.0 mb)
Winds: variable direction winds at 2 MPH (2 knots; 1.0 m/s)
Visibility: 6 or more miles (10+ km)
Ceiling: ceiling and visibility are OK
Clouds: unknown
Weather: no significant weather observed at this time

METAR text: ZBHH 200000Z VRB01MPS CAVOK M20/M24 Q1034 NOSIG
Conditions at: ZBHH (HUHHOT , CN) observed 0000 UTC 20 January 2019
Temperature: -20.0°C (-4°F)
Dewpoint: -24.0°C (-11°F) [RH = 70%]
Pressure (altimeter): 30.53 inches Hg (1034.0 mb)
Winds: variable direction winds at 2 MPH (2 knots; 1.0 m/s)
Visibility: 6 or more miles (10+ km)
Ceiling: ceiling and visibility are OK
Clouds: unknown
Weather: no significant weather observed at this time

METAR text: ZBHH 192300Z 06003MPS CAVOK M20/M24 Q1033 NOSIG
Conditions at: ZBHH (HUHHOT , CN) observed 2300 UTC 19 January 2019
Temperature: -20.0°C (-4°F)
Dewpoint: -24.0°C (-11°F) [RH = 70%]
Pressure (altimeter): 30.50 inches Hg (1033.0 mb)
Winds: from the ENE (60 degrees) at 7 MPH (6 knots; 3.1 m/s)
Visibility: 6 or more miles (10+ km)
Ceiling: ceiling and visibility are OK
Clouds: unknown
Weather: no significant weather observed at this time

METAR text: ZBHH 192200Z 03002MPS 320V090 CAVOK M18/M23 Q1032 NOSIG
Conditions at: ZBHH (HUHHOT , CN) observed 2200 UTC 19 January 2019
Temperature: -18.0°C (-0°F)
Dewpoint: -23.0°C (-9°F) [RH = 65%]
Pressure (altimeter): 30.47 inches Hg (1032.0 mb)
Winds: from the NNE (30 degrees) at 5 MPH (4 knots; 2.1 m/s)
Visibility: 6 or more miles (10+ km)
Ceiling: ceiling and visibility are OK
Clouds: unknown
Weather: no significant weather observed at this time

METAR text: ZBHH 192100Z 34004MPS CAVOK M15/M20 Q1032 NOSIG
Conditions at: ZBHH (HUHHOT , CN) observed 2100 UTC 19 January 2019
Temperature: -15.0°C ( 5°F)
Dewpoint: -20.0°C (-4°F) [RH = 66%]
Pressure (altimeter): 30.47 inches Hg (1032.0 mb)
Winds: from the NNW (340 degrees) at 9 MPH (8 knots; 4.1 m/s)
Visibility: 6 or more miles (10+ km)
Ceiling: ceiling and visibility are OK
Clouds: unknown
Weather: no significant weather observed at this time

METAR text: ZBHH 192000Z 33005MPS CAVOK M13/M19 Q1032 NOSIG
Conditions at: ZBHH (HUHHOT , CN) observed 2000 UTC 19 January 2019
Temperature: -13.0°C ( 9°F)
Dewpoint: -19.0°C (-2°F) [RH = 61%]
Pressure (altimeter): 30.47 inches Hg (1032.0 mb)
Winds: from the NNW (330 degrees) at 12 MPH (10 knots; 5.1 m/s)
Visibility: 6 or more miles (10+ km)
Ceiling: ceiling and visibility are OK
Clouds: unknown
Weather: no significant weather observed at this time

METAR text: ZBHH 191900Z 34004MPS CAVOK M13/M19 Q1032 NOSIG
Conditions at: ZBHH (HUHHOT , CN) observed 1900 UTC 19 January 2019
Temperature: -13.0°C ( 9°F)
Dewpoint: -19.0°C (-2°F) [RH = 61%]
Pressure (altimeter): 30.47 inches Hg (1032.0 mb)
Winds: from the NNW (340 degrees) at 9 MPH (8 knots; 4.1 m/s)
Visibility: 6 or more miles (10+ km)
Ceiling: ceiling and visibility are OK
Clouds: unknown
Weather: no significant weather observed at this time

METAR text: ZBHH 191800Z 33004MPS CAVOK M12/M18 Q1031 NOSIG
Conditions at: ZBHH (HUHHOT , CN) observed 1800 UTC 19 January 2019
Temperature: -12.0°C (10°F)
Dewpoint: -18.0°C (-0°F) [RH = 61%]
Pressure (altimeter): 30.44 inches Hg (1031.0 mb)
Winds: from the NNW (330 degrees) at 9 MPH (8 knots; 4.1 m/s)
Visibility: 6 or more miles (10+ km)
Ceiling: ceiling and visibility are OK
Clouds: unknown
Weather: no significant weather observed at this time

Forecast for: ZBHH (HUHHOT , CN)
Text: TAF ZBHH 210310Z 2106/2206 23004MPS CAVOK TXM03/07Z TNM20/23Z
Forecast period: 0600 UTC 21 January 2019 to 0600 UTC 22 January 2019
Forecast type: FROM: standard forecast or significant change
Winds: from the SW (230 degrees) at 9 MPH (8 knots; 4.1 m/s)
Visibility: 6 or more miles 10+ km)
Ceiling: unknown
Clouds: missing
Weather: no significant weather forecast for this period